Time;durP1;ratioP1;P1;durP2;ratioP2;P2;SDS_P1;SDS_P2;PMS_P1;PMS_P2;Temp;Humidity;BMP_temperature;BMP_pressure;BME280_temperature;BME280_humidity;BME280_pressure;Samples;Min_cycle;Max_cycle;Signal;HPM_P1;HPM_P2
2022/01/07 00:00:46;;;;;;;7.90;4.72;;;;;;;-0.54;100.00;101023.47;5020219;28;20056;-84
2022/01/07 00:03:14;;;;;;;16.33;6.90;;;;;;;-0.57;100.00;101015.63;5001680;28;20052;-88
2022/01/07 00:05:42;;;;;;;10.93;5.20;;;;;;;-0.59;100.00;101014.69;5009413;28;20045;-85
2022/01/07 00:08:09;;;;;;;16.40;4.45;;;;;;;-0.61;100.00;101019.75;5003714;28;20048;-85
2022/01/07 00:10:36;;;;;;;17.33;6.13;;;;;;;-0.61;100.00;101016.28;4999410;28;20052;-85
2022/01/07 00:13:02;;;;;;;8.63;4.55;;;;;;;-0.61;100.00;101017.19;5009851;28;20599;-85
2022/01/07 00:15:29;;;;;;;11.38;4.80;;;;;;;-0.60;100.00;101013.81;5023799;28;20044;-87
2022/01/07 00:17:56;;;;;;;16.25;6.88;;;;;;;-0.60;100.00;101011.25;5018921;28;20540;-89
2022/01/07 00:20:22;;;;;;;8.15;3.75;;;;;;;-0.59;100.00;101015.53;5007672;28;20348;-87
2022/01/07 00:22:49;;;;;;;13.70;5.95;;;;;;;-0.58;100.00;101012.16;4998967;28;20640;-87
2022/01/07 00:25:16;;;;;;;12.07;5.25;;;;;;;-0.55;100.00;101003.69;5024778;28;20053;-84
2022/01/07 00:27:43;;;;;;;11.60;5.28;;;;;;;-0.52;100.00;101004.72;5024068;28;20057;-85
2022/01/07 00:30:13;;;;;;;21.85;5.15;;;;;;;-0.45;100.00;101007.56;5015770;28;20071;-90
2022/01/07 00:32:40;;;;;;;8.13;4.75;;;;;;;-0.39;100.00;101002.63;5020483;28;20063;-88
2022/01/07 00:35:08;;;;;;;17.23;4.85;;;;;;;-0.32;100.00;100999.50;5018535;28;20057;-85
2022/01/07 00:37:35;;;;;;;10.93;4.70;;;;;;;-0.29;100.00;100997.06;5040454;28;20048;-85
2022/01/07 00:40:02;;;;;;;10.98;4.60;;;;;;;-0.25;100.00;100991.25;5024544;28;20048;-87
2022/01/07 00:42:28;;;;;;;12.73;4.30;;;;;;;-0.21;100.00;100982.81;5002658;28;20526;-85
2022/01/07 00:44:55;;;;;;;8.48;4.47;;;;;;;-0.17;100.00;100987.28;5023706;28;20053;-84
2022/01/07 00:47:21;;;;;;;9.27;4.32;;;;;;;-0.18;100.00;100979.50;5020149;28;20041;-86
2022/01/07 00:49:48;;;;;;;9.02;5.63;;;;;;;-0.20;99.80;100968.25;5023454;28;20048;-88
2022/01/07 00:52:15;;;;;;;12.32;4.18;;;;;;;-0.21;99.71;100971.63;5019050;28;20057;-87
2022/01/07 00:54:41;;;;;;;10.25;4.68;;;;;;;-0.21;99.61;100969.06;5003619;28;20052;-88
2022/01/07 00:57:08;;;;;;;10.45;5.25;;;;;;;-0.21;100.00;100969.06;5005680;28;20504;-85
2022/01/07 00:59:35;;;;;;;12.63;5.03;;;;;;;-0.20;99.99;100963.97;5023424;28;20048;-88
2022/01/07 01:02:02;;;;;;;13.70;4.80;;;;;;;-0.19;100.00;100960.59;5015551;28;20044;-87
2022/01/07 01:04:28;;;;;;;6.85;4.00;;;;;;;-0.15;99.82;100953.88;5022180;28;20555;-88
2022/01/07 01:06:55;;;;;;;10.82;4.22;;;;;;;-0.12;99.11;100945.41;5019364;28;20048;-86
2022/01/07 01:09:21;;;;;;;18.15;4.40;;;;;;;-0.09;99.20;100940.38;5040054;28;20049;-86
2022/01/07 01:11:48;;;;;;;14.35;4.50;;;;;;;-0.06;99.05;100936.22;5035024;28;20326;-85
2022/01/07 01:14:14;;;;;;;11.15;4.57;;;;;;;-0.05;98.31;100937.97;5002645;28;20068;-85
2022/01/07 01:16:41;;;;;;;7.65;4.22;;;;;;;-0.01;98.28;100931.25;5007403;28;20078;-85
2022/01/07 01:19:07;;;;;;;16.20;4.90;;;;;;;0.04;98.21;100924.59;5003567;28;20134;-85
2022/01/07 01:21:35;;;;;;;13.35;4.03;;;;;;;0.09;97.30;100923.06;5008337;28;20045;-89
2022/01/07 01:24:02;;;;;;;8.40;3.85;;;;;;;0.14;97.44;100921.56;4995938;28;20203;-88
2022/01/07 01:26:28;;;;;;;11.10;4.13;;;;;;;0.19;97.26;100918.28;5003911;28;20075;-84
2022/01/07 01:28:55;;;;;;;8.73;4.47;;;;;;;0.22;96.77;100914.13;5028579;28;20571;-87
2022/01/07 01:31:22;;;;;;;6.82;3.58;;;;;;;0.27;96.34;100914.28;5019687;28;20044;-89
2022/01/07 01:33:48;;;;;;;8.38;3.83;;;;;;;0.28;96.72;100906.59;5019590;28;20052;-84
2022/01/07 01:36:15;;;;;;;7.40;4.00;;;;;;;0.32;95.82;100899.88;5026786;28;20634;-85
2022/01/07 01:38:43;;;;;;;8.32;3.30;;;;;;;0.35;95.06;100899.09;5012980;28;20049;-85
2022/01/07 01:41:10;;;;;;;9.60;4.25;;;;;;;0.36;95.45;100891.44;5008442;28;20045;-86
2022/01/07 01:43:37;;;;;;;12.45;3.80;;;;;;;0.37;94.94;100889.75;5012882;28;20052;-85
2022/01/07 01:46:04;;;;;;;16.15;4.10;;;;;;;0.38;95.26;100883.75;5014384;28;20040;-85
2022/01/07 01:48:31;;;;;;;8.05;4.53;;;;;;;0.38;95.24;100870.88;5010228;28;20151;-86
2022/01/07 01:50:58;;;;;;;7.72;4.25;;;;;;;0.37;95.62;100871.72;5002231;28;20045;-85
2022/01/07 01:53:25;;;;;;;12.23;3.40;;;;;;;0.40;95.09;100872.69;5005543;28;20863;-88
2022/01/07 01:55:55;;;;;;;5.07;3.35;;;;;;;0.42;95.09;100870.19;5011169;28;20053;-84
2022/01/07 01:58:22;;;;;;;8.65;4.13;;;;;;;0.44;94.09;100863.38;5006306;28;20119;-87
2022/01/07 02:00:48;;;;;;;9.63;4.53;;;;;;;0.48;95.07;100858.41;5024584;28;20510;-85
2022/01/07 02:03:14;;;;;;;7.63;3.33;;;;;;;0.52;94.76;100858.50;5018882;28;20637;-85
2022/01/07 02:05:41;;;;;;;15.52;4.43;;;;;;;0.55;94.64;100856.91;5014791;28;20049;-87
2022/01/07 02:08:09;;;;;;;14.30;4.00;;;;;;;0.60;94.29;100846.75;5024062;28;20697;-84
2022/01/07 02:10:36;;;;;;;11.68;4.28;;;;;;;0.62;94.21;100843.41;5021182;28;20987;-86
2022/01/07 02:13:03;;;;;;;9.25;3.47;;;;;;;0.64;94.28;100839.19;5006618;28;20057;-85
2022/01/07 02:15:30;;;;;;;17.73;4.95;;;;;;;0.71;93.72;100829.97;5003145;28;20049;-88
2022/01/07 02:17:57;;;;;;;14.23;5.85;;;;;;;0.73;93.53;100828.34;5025021;28;20052;-87
2022/01/07 02:20:28;;;;;;;8.35;3.45;;;;;;;0.75;93.84;100818.94;5020209;28;20053;-88
2022/01/07 02:22:59;;;;;;;8.57;3.78;;;;;;;0.78;92.97;100818.19;5024355;28;20064;-85
2022/01/07 02:25:26;;;;;;;17.70;4.47;;;;;;;0.82;93.15;100822.59;5006473;28;20049;-86
2022/01/07 02:27:54;;;;;;;12.02;4.10;;;;;;;0.82;92.01;100823.50;5012359;28;20124;-85
2022/01/07 02:30:27;;;;;;;12.90;3.58;;;;;;;0.84;92.80;100808.06;4996582;28;20056;-85
2022/01/07 02:32:55;;;;;;;21.80;6.18;;;;;;;0.89;92.70;100796.22;5024674;28;20052;-85
2022/01/07 02:35:24;;;;;;;7.20;3.92;;;;;;;0.90;92.75;100791.94;5004492;28;20064;-85
2022/01/07 02:37:51;;;;;;;8.80;3.45;;;;;;;0.91;91.91;100792.00;5026298;28;20132;-85
2022/01/07 02:40:18;;;;;;;6.75;3.90;;;;;;;0.93;92.81;100792.91;5023321;28;20390;-88
2022/01/07 02:42:44;;;;;;;13.82;4.88;;;;;;;0.98;92.01;100780.19;5014649;28;20049;-85
2022/01/07 02:45:13;;;;;;;13.27;4.55;;;;;;;0.99;90.71;100780.22;5022429;28;20333;-87
2022/01/07 02:47:49;;;;;;;9.73;4.45;;;;;;;1.01;91.24;100774.25;5022591;28;20110;-87
2022/01/07 02:50:22;;;;;;;7.35;3.13;;;;;;;1.03;91.20;100775.16;5008066;28;20052;-87
2022/01/07 02:52:49;;;;;;;11.45;4.15;;;;;;;1.05;91.26;100763.22;5009734;28;20056;-88
2022/01/07 02:55:18;;;;;;;17.25;3.78;;;;;;;1.05;90.56;100752.91;5018718;28;20099;-85
2022/01/07 02:57:45;;;;;;;7.03;3.97;;;;;;;1.11;91.22;100750.53;5008828;28;20056;-87
2022/01/07 03:00:13;;;;;;;7.88;2.92;;;;;;;1.11;89.87;100751.38;5002933;28;20052;-86
2022/01/07 03:02:40;;;;;;;6.25;2.85;;;;;;;1.10;89.89;100741.88;5023283;28;20061;-87
2022/01/07 03:05:07;;;;;;;9.95;3.67;;;;;;;1.08;90.21;100742.66;5008491;28;20072;-86
2022/01/07 03:07:34;;;;;;;6.95;3.38;;;;;;;1.08;90.03;100743.56;5018610;28;20068;-85
2022/01/07 03:10:01;;;;;;;7.35;3.47;;;;;;;1.06;90.85;100745.22;5008136;28;20045;-85
2022/01/07 03:12:27;;;;;;;15.32;3.45;;;;;;;1.07;90.79;100744.38;5018597;28;20056;-87
2022/01/07 03:14:54;;;;;;;5.10;2.95;;;;;;;1.08;90.75;100734.94;5010253;28;20500;-84
2022/01/07 03:17:20;;;;;;;12.10;4.10;;;;;;;1.10;90.29;100725.56;5007555;28;20049;-86
2022/01/07 03:19:47;;;;;;;13.85;4.45;;;;;;;1.10;90.27;100731.56;5003516;28;20102;-88
2022/01/07 03:22:13;;;;;;;7.50;3.05;;;;;;;1.13;89.65;100723.97;5003810;28;20052;-85
2022/01/07 03:24:40;;;;;;;20.88;3.80;;;;;;;1.15;89.65;100718.84;5022173;28;20053;-85
2022/01/07 03:27:09;;;;;;;12.30;4.25;;;;;;;1.16;89.86;100717.97;5000996;28;20514;-86
2022/01/07 03:29:35;;;;;;;10.20;4.05;;;;;;;1.19;89.90;100715.53;5005448;28;20055;-85
2022/01/07 03:32:02;;;;;;;13.43;3.38;;;;;;;1.20;89.54;100709.53;5001359;28;20041;-86
2022/01/07 03:34:28;;;;;;;11.20;2.92;;;;;;;1.21;89.72;100695.78;5005275;28;20060;-86
2022/01/07 03:36:55;;;;;;;7.50;3.03;;;;;;;1.24;89.37;100692.44;5007408;28;20044;-85
2022/01/07 03:39:21;;;;;;;5.32;2.70;;;;;;;1.23;89.23;100681.25;5001246;28;20060;-85
2022/01/07 03:41:48;;;;;;;5.93;2.60;;;;;;;1.25;89.22;100677.03;5004332;28;20059;-86
2022/01/07 03:44:14;;;;;;;12.23;3.28;;;;;;;1.26;88.71;100668.44;5020005;28;20056;-87
2022/01/07 03:46:41;;;;;;;7.93;2.80;;;;;;;1.25;88.74;100674.44;5021681;28;20072;-85
2022/01/07 03:49:07;;;;;;;8.23;2.58;;;;;;;1.24;88.83;100672.69;5010128;28;20041;-85
2022/01/07 03:51:34;;;;;;;12.43;3.78;;;;;;;1.26;88.75;100665.84;5011847;28;20078;-87
2022/01/07 03:54:00;;;;;;;12.02;3.65;;;;;;;1.27;88.79;100662.47;5025960;28;20045;-86
2022/01/07 03:56:27;;;;;;;9.27;3.33;;;;;;;1.28;87.67;100661.63;5004416;28;20084;-85
2022/01/07 03:58:53;;;;;;;9.98;2.85;;;;;;;1.30;87.99;100660.00;5022399;28;20041;-84
2022/01/07 04:01:19;;;;;;;5.88;2.83;;;;;;;1.31;88.15;100650.53;5021411;28;20055;-86
2022/01/07 04:03:46;;;;;;;10.15;2.83;;;;;;;1.31;87.70;100651.41;5018088;28;20052;-87
2022/01/07 04:06:15;;;;;;;6.22;2.63;;;;;;;1.32;87.68;100655.72;5019191;28;20045;-87
2022/01/07 04:08:41;;;;;;;7.68;3.47;;;;;;;1.31;88.18;100641.06;5006803;28;20049;-89
2022/01/07 04:11:08;;;;;;;6.88;3.00;;;;;;;1.30;87.49;100647.09;5017004;28;20063;-87
2022/01/07 04:13:34;;;;;;;9.40;2.92;;;;;;;1.30;88.11;100639.34;5024057;28;20045;-86
2022/01/07 04:16:01;;;;;;;8.13;3.00;;;;;;;1.31;87.86;100646.22;5004317;28;20044;-86
2022/01/07 04:18:27;;;;;;;5.97;3.75;;;;;;;1.30;87.71;100639.34;5023733;28;20049;-86
2022/01/07 04:20:54;;;;;;;7.82;3.08;;;;;;;1.31;88.52;100635.06;5006305;28;20094;-86
2022/01/07 04:23:20;;;;;;;7.03;2.15;;;;;;;1.32;88.19;100634.22;5018458;28;20056;-84
2022/01/07 04:25:47;;;;;;;4.28;2.55;;;;;;;1.33;88.66;100630.84;5024865;28;20048;-88
2022/01/07 04:28:13;;;;;;;7.72;2.78;;;;;;;1.34;87.73;100629.97;5021859;28;20041;-85
2022/01/07 04:30:44;;;;;;;5.70;2.38;;;;;;;1.37;87.41;100622.34;5018491;28;20049;-85
2022/01/07 04:33:14;;;;;;;5.28;2.22;;;;;;;1.43;87.26;100621.63;5011612;28;20049;-85
2022/01/07 04:35:43;;;;;;;7.32;3.53;;;;;;;1.46;86.55;100621.69;5004984;28;20063;-85
2022/01/07 04:38:10;;;;;;;3.70;2.17;;;;;;;1.51;85.54;100624.44;5018686;28;20484;-89
2022/01/07 04:40:37;;;;;;;4.78;1.70;;;;;;;1.53;84.04;100617.63;5018494;28;20135;-85
2022/01/07 04:43:06;;;;;;;8.18;2.38;;;;;;;1.57;85.07;100620.31;5023033;28;20233;-87
2022/01/07 04:45:33;;;;;;;7.22;3.50;;;;;;;1.63;84.45;100615.31;5024381;28;20067;-85
2022/01/07 04:48:00;;;;;;;8.52;2.38;;;;;;;1.66;84.47;100611.94;5022086;28;20045;-88
2022/01/07 04:50:27;;;;;;;4.75;2.33;;;;;;;1.68;84.07;100609.41;5021130;28;20495;-87
2022/01/07 04:52:54;;;;;;;5.22;2.40;;;;;;;1.70;84.08;100595.69;5009473;28;20056;-87
2022/01/07 04:55:29;;;;;;;5.15;2.00;;;;;;;1.72;82.65;100598.31;5001208;28;20057;-86
2022/01/07 04:57:56;;;;;;;9.30;2.95;;;;;;;1.72;81.95;100599.22;5011742;28;20140;-85
2022/01/07 05:00:25;;;;;;;6.45;2.53;;;;;;;1.77;82.38;100596.72;5002076;28;20254;-88
2022/01/07 05:02:51;;;;;;;9.18;2.45;;;;;;;1.80;82.33;100600.28;5011390;28;20869;-87
2022/01/07 05:05:18;;;;;;;7.85;2.72;;;;;;;1.85;81.26;100596.94;5022269;28;20064;-87
2022/01/07 05:07:45;;;;;;;10.32;3.30;;;;;;;1.87;80.72;100595.28;5005439;28;20187;-87
2022/01/07 05:10:14;;;;;;;6.82;2.72;;;;;;;1.89;80.36;100603.91;5011337;28;20056;-88
2022/01/07 05:12:42;;;;;;;10.65;2.50;;;;;;;1.90;80.82;100597.91;5008177;28;20457;-87
2022/01/07 05:15:10;;;;;;;5.55;2.95;;;;;;;1.92;80.84;100597.13;5029317;28;20049;-86
2022/01/07 05:17:37;;;;;;;5.75;2.70;;;;;;;1.93;81.20;100590.25;5012793;28;20049;-85
2022/01/07 05:20:04;;;;;;;8.30;3.65;;;;;;;1.95;80.58;100591.16;5017900;28;20060;-90
2022/01/07 05:22:31;;;;;;;5.90;2.63;;;;;;;1.95;81.28;100591.16;5014031;28;20148;-86
2022/01/07 05:24:58;;;;;;;6.43;3.00;;;;;;;1.92;81.56;100579.06;5010563;28;20053;-86
2022/01/07 05:27:24;;;;;;;8.88;5.40;;;;;;;1.94;81.67;100576.50;5014499;28;20057;-86
2022/01/07 05:29:51;;;;;;;8.02;4.30;;;;;;;1.89;82.35;100570.34;5033739;28;20064;-88
2022/01/07 05:32:19;;;;;;;12.65;3.83;;;;;;;1.90;83.11;100569.53;5023770;28;20053;-87
2022/01/07 05:34:46;;;;;;;7.35;4.25;;;;;;;1.87;83.21;100561.72;5012050;28;20092;-85
2022/01/07 05:37:13;;;;;;;10.82;3.50;;;;;;;1.85;83.06;100553.06;5009104;28;20047;-85
2022/01/07 05:39:39;;;;;;;10.50;3.53;;;;;;;1.82;84.13;100553.84;5021308;28;20071;-87
2022/01/07 05:42:07;;;;;;;12.73;3.20;;;;;;;1.82;84.08;100551.25;5029814;28;21011;-87
2022/01/07 05:44:34;;;;;;;7.22;4.15;;;;;;;1.79;84.82;100546.91;5023948;28;20048;-89
2022/01/07 05:47:03;;;;;;;8.02;4.50;;;;;;;1.78;85.02;100537.41;5012141;28;20056;-88
2022/01/07 05:49:30;;;;;;;7.47;3.03;;;;;;;1.78;85.01;100531.38;5020425;28;20118;-86
2022/01/07 05:51:56;;;;;;;9.93;3.20;;;;;;;1.78;85.17;100528.81;5008163;28;20051;-88
2022/01/07 05:54:24;;;;;;;5.75;2.80;;;;;;;1.78;84.78;100523.63;5030528;28;20436;-86
2022/01/07 05:56:51;;;;;;;6.80;3.40;;;;;;;1.78;85.18;100518.47;5014376;28;20360;-86
2022/01/07 05:59:18;;;;;;;5.45;3.60;;;;;;;1.78;84.91;100510.72;5028213;28;20080;-86
2022/01/07 06:01:44;;;;;;;10.20;3.72;;;;;;;1.81;84.89;100518.53;5011528;28;20232;-88
2022/01/07 06:04:11;;;;;;;6.43;3.15;;;;;;;1.81;84.76;100506.53;5009387;28;20068;-88
2022/01/07 06:06:37;;;;;;;9.48;3.58;;;;;;;1.83;84.45;100509.13;5025243;28;21008;-86
2022/01/07 06:09:04;;;;;;;7.25;3.95;;;;;;;1.88;84.37;100501.50;5008390;28;20696;-89
2022/01/07 06:11:31;;;;;;;6.30;3.30;;;;;;;1.92;83.11;100498.16;5011849;28;20092;-86
2022/01/07 06:13:57;;;;;;;7.97;3.20;;;;;;;1.90;83.31;100495.53;5030785;28;20052;-85
2022/01/07 06:16:24;;;;;;;5.03;3.13;;;;;;;1.91;83.98;100497.28;5009049;28;20053;-86
2022/01/07 06:18:53;;;;;;;7.68;3.40;;;;;;;1.92;84.05;100496.44;5015756;28;20049;-87
2022/01/07 06:21:20;;;;;;;9.20;2.80;;;;;;;1.91;83.48;100499.84;5009859;28;20057;-88
2022/01/07 06:23:47;;;;;;;9.05;3.35;;;;;;;1.89;83.59;100504.13;5031080;28;20053;-85
2022/01/07 06:26:14;;;;;;;9.50;3.85;;;;;;;1.91;83.99;100506.75;5027886;28;20127;-86
2022/01/07 06:28:40;;;;;;;6.80;4.40;;;;;;;1.92;84.38;100500.75;5011115;28;20537;-88
2022/01/07 06:31:07;;;;;;;10.05;3.17;;;;;;;1.91;84.30;100491.25;5027261;28;20527;-86
2022/01/07 06:33:34;;;;;;;4.05;2.40;;;;;;;1.91;83.82;100497.28;5027458;28;20045;-88
2022/01/07 06:36:00;;;;;;;5.07;3.63;;;;;;;1.88;84.36;100489.47;5008461;28;20068;-86
2022/01/07 06:38:27;;;;;;;5.32;3.30;;;;;;;1.86;84.57;100492.84;5015048;28;20060;-87
2022/01/07 06:40:53;;;;;;;6.13;3.22;;;;;;;1.83;84.87;100488.50;5011606;28;20057;-86
2022/01/07 06:43:20;;;;;;;8.85;3.80;;;;;;;1.81;85.44;100495.31;5029322;28;20879;-87
2022/01/07 06:45:47;;;;;;;6.07;3.05;;;;;;;1.80;85.68;100491.00;5027800;28;20079;-86
2022/01/07 06:48:13;;;;;;;6.38;3.17;;;;;;;1.79;86.00;100487.53;5021418;28;20186;-87
2022/01/07 06:50:41;;;;;;;8.00;3.35;;;;;;;1.79;86.87;100494.41;5030304;28;20447;-86
2022/01/07 06:53:10;;;;;;;6.53;3.30;;;;;;;1.77;87.32;100499.53;5006746;28;20498;-88
2022/01/07 06:55:37;;;;;;;8.43;3.72;;;;;;;1.78;88.16;100487.50;5015390;28;20045;-86
2022/01/07 06:58:04;;;;;;;7.63;3.58;;;;;;;1.76;88.22;100487.47;5028789;28;20550;-86
2022/01/07 07:00:30;;;;;;;7.13;3.45;;;;;;;1.74;88.31;100494.28;5013387;28;20053;-86
2022/01/07 07:02:57;;;;;;;5.93;3.38;;;;;;;1.74;88.95;100485.69;5022004;28;20049;-86
2022/01/07 07:05:24;;;;;;;5.50;3.15;;;;;;;1.74;89.72;100485.69;5025576;28;20057;-87
2022/01/07 07:07:52;;;;;;;15.40;3.75;;;;;;;1.74;90.11;100491.72;5027098;28;20128;-86
2022/01/07 07:10:18;;;;;;;9.20;3.10;;;;;;;1.71;90.87;100489.06;5014782;28;20161;-85
2022/01/07 07:12:45;;;;;;;7.85;3.30;;;;;;;1.72;90.92;100492.50;5023017;28;20052;-86
2022/01/07 07:15:12;;;;;;;7.82;3.50;;;;;;;1.71;90.97;100493.34;4998773;28;20048;-88
2022/01/07 07:17:38;;;;;;;8.85;3.70;;;;;;;1.69;91.35;100495.03;5013187;28;20044;-85
2022/01/07 07:20:05;;;;;;;14.48;3.58;;;;;;;1.67;92.61;100486.34;5008322;28;20057;-88
2022/01/07 07:22:32;;;;;;;15.00;8.60;;;;;;;1.59;93.49;100481.91;5026058;28;20048;-85
2022/01/07 07:24:58;;;;;;;7.55;3.92;;;;;;;1.55;94.64;100484.34;5008144;28;20084;-88
2022/01/07 07:27:24;;;;;;;5.07;3.15;;;;;;;1.50;94.91;100489.41;5013201;28;20056;-86
2022/01/07 07:29:51;;;;;;;6.80;3.80;;;;;;;1.43;95.82;100483.19;5013479;28;20411;-86
2022/01/07 07:32:23;;;;;;;10.48;3.88;;;;;;;1.40;95.96;100485.72;5007985;28;20567;-85
2022/01/07 07:35:02;;;;;;;6.90;3.80;;;;;;;1.42;96.69;100480.59;5029309;28;20053;-85
2022/01/07 07:37:29;;;;;;;7.35;4.20;;;;;;;1.40;96.47;100485.72;5008634;28;20061;-85
2022/01/07 07:39:57;;;;;;;5.57;3.67;;;;;;;1.44;96.45;100478.94;5012554;28;21045;-86
2022/01/07 07:42:24;;;;;;;9.10;4.20;;;;;;;1.41;96.79;100478.84;5011184;28;20045;-86
2022/01/07 07:44:50;;;;;;;5.00;3.22;;;;;;;1.39;97.01;100483.09;5007631;28;20671;-87
2022/01/07 07:47:17;;;;;;;8.95;2.90;;;;;;;1.37;97.61;100465.00;5010373;28;21714;-88
2022/01/07 07:49:43;;;;;;;5.47;3.80;;;;;;;1.36;97.58;100463.25;5026014;28;20593;-87
2022/01/07 07:52:10;;;;;;;16.05;5.00;;;;;;;1.39;97.74;100481.38;5026497;28;20174;-89
2022/01/07 07:54:36;;;;;;;7.18;4.00;;;;;;;1.40;97.92;100474.53;5027190;28;20059;-86
2022/01/07 07:57:03;;;;;;;4.43;3.63;;;;;;;1.39;97.66;100473.63;5020602;28;20048;-88
2022/01/07 07:59:30;;;;;;;6.63;3.42;;;;;;;1.34;98.09;100464.06;5019605;28;20055;-86
2022/01/07 08:01:57;;;;;;;7.32;4.07;;;;;;;1.33;98.07;100465.78;5024594;28;21013;-86
2022/01/07 08:04:23;;;;;;;4.32;3.30;;;;;;;1.34;98.91;100464.06;5018321;28;20052;-87
2022/01/07 08:06:50;;;;;;;5.68;3.67;;;;;;;1.34;98.41;100466.63;5011125;28;20080;-85
2022/01/07 08:09:17;;;;;;;5.10;3.92;;;;;;;1.35;98.24;100470.97;5023464;28;20052;-88
2022/01/07 08:11:51;;;;;;;6.63;3.58;;;;;;;1.36;98.28;100470.13;5013250;28;20059;-85
2022/01/07 08:17:06;;;;;;;4.97;3.20;;;;;;;1.34;98.47;100459.75;5013767;28;20055;-88
2022/01/07 08:19:33;;;;;;;11.73;5.03;;;;;;;1.37;98.47;100458.97;5012108;28;20045;-86
2022/01/07 08:22:00;;;;;;;5.10;3.92;;;;;;;1.41;98.37;100453.03;5021089;28;20144;-87
2022/01/07 08:24:28;;;;;;;4.55;3.33;;;;;;;1.43;98.28;100464.28;5023713;28;20048;-86
2022/01/07 08:26:55;;;;;;;10.70;5.22;;;;;;;1.45;97.82;100457.47;5025762;28;20040;-87
2022/01/07 08:29:24;;;;;;;9.73;4.93;;;;;;;1.47;98.08;100461.84;5000048;28;20045;-86
2022/01/07 08:37:15;;;;;;;10.80;5.35;;;;;;;1.51;97.20;100455.03;5025977;28;20076;-85
2022/01/07 08:39:42;;;;;;;9.40;4.45;;;;;;;1.53;96.79;100455.94;5013387;28;20570;-87
2022/01/07 08:42:09;;;;;;;7.93;5.50;;;;;;;1.57;96.21;100459.47;5021505;28;20060;-87
2022/01/07 08:44:35;;;;;;;8.23;4.90;;;;;;;1.58;96.39;100464.66;5027585;28;20050;-85
2022/01/07 08:47:02;;;;;;;10.27;5.00;;;;;;;1.61;95.51;100462.16;5005884;28;20049;-86
2022/01/07 08:49:28;;;;;;;6.78;4.60;;;;;;;1.62;95.25;100465.63;5011173;28;20045;-86
2022/01/07 08:51:55;;;;;;;8.65;4.43;;;;;;;1.65;95.12;100453.66;5009527;28;20053;-88
2022/01/07 08:54:21;;;;;;;6.25;3.72;;;;;;;1.64;95.63;100459.66;5007299;28;20423;-85
2022/01/07 08:56:49;;;;;;;3.83;3.25;;;;;;;1.69;95.27;100462.34;5009646;28;20056;-87
2022/01/07 08:59:15;;;;;;;6.05;3.58;;;;;;;1.71;95.31;100464.94;5006130;28;20204;-86
2022/01/07 09:01:42;;;;;;;6.20;3.50;;;;;;;1.74;95.10;100459.88;5012717;28;20049;-87
2022/01/07 09:04:09;;;;;;;6.10;4.15;;;;;;;1.76;95.29;100455.63;5012159;28;20060;-87
2022/01/07 09:06:36;;;;;;;7.82;4.07;;;;;;;1.74;95.28;100458.16;5022683;28;20063;-86
2022/01/07 09:09:03;;;;;;;6.85;3.95;;;;;;;1.76;95.07;100456.50;5010861;28;20055;-86
2022/01/07 09:11:30;;;;;;;6.68;4.22;;;;;;;1.79;95.28;100459.16;5026353;28;20053;-88
2022/01/07 09:13:58;;;;;;;9.07;5.32;;;;;;;1.81;95.25;100456.59;5012204;28;20570;-88
2022/01/07 09:16:26;;;;;;;4.40;2.97;;;;;;;1.84;95.32;100461.84;5013359;28;20103;-88
2022/01/07 09:18:53;;;;;;;7.57;3.22;;;;;;;1.83;95.10;100454.06;5026104;28;20182;-87
2022/01/07 09:21:20;;;;;;;3.22;2.72;;;;;;;1.84;94.77;100458.38;5026900;28;20058;-87
2022/01/07 09:23:48;;;;;;;4.88;3.47;;;;;;;1.85;94.82;100460.13;5012933;28;20060;-84
2022/01/07 09:26:15;;;;;;;5.22;3.83;;;;;;;1.84;95.30;100464.44;5021928;28;20483;-86
2022/01/07 09:28:42;;;;;;;5.35;4.05;;;;;;;1.88;95.03;100457.59;5011328;28;20056;-86
2022/01/07 09:31:08;;;;;;;6.85;5.57;;;;;;;1.90;95.12;100463.69;5019360;28;20056;-88
2022/01/07 09:33:35;;;;;;;7.82;3.80;;;;;;;1.94;94.56;100452.59;5027014;28;20049;-86
2022/01/07 09:36:01;;;;;;;5.18;3.42;;;;;;;1.97;94.27;100443.22;5013175;28;20056;-85
2022/01/07 09:38:28;;;;;;;4.00;2.90;;;;;;;2.00;94.17;100450.16;5004481;28;20336;-85
2022/01/07 09:40:55;;;;;;;6.05;4.50;;;;;;;2.03;94.31;100452.78;5025014;28;20060;-87
2022/01/07 09:43:22;;;;;;;4.18;3.05;;;;;;;2.03;94.02;100451.94;5011903;28;20072;-85
2022/01/07 09:45:50;;;;;;;5.55;3.10;;;;;;;2.02;94.13;100456.25;5013484;28;20059;-85
2022/01/07 09:48:16;;;;;;;3.33;2.85;;;;;;;2.05;94.17;100447.69;5030648;28;20037;-85
2022/01/07 09:50:45;;;;;;;9.30;3.67;;;;;;;2.06;94.40;100445.16;5009939;28;20486;-86
2022/01/07 09:53:14;;;;;;;3.78;2.63;;;;;;;2.11;93.96;100450.38;5015131;28;20044;-86
2022/01/07 09:55:41;;;;;;;4.57;3.33;;;;;;;2.10;94.08;100458.97;5027563;28;20240;-88
2022/01/07 09:58:12;;;;;;;5.43;3.00;;;;;;;2.12;93.84;100445.25;5012803;28;20053;-88
2022/01/07 10:00:44;;;;;;;5.80;3.63;;;;;;;2.11;94.17;100453.88;5013607;28;20048;-88
2022/01/07 10:03:18;;;;;;;4.85;3.33;;;;;;;2.13;94.42;100449.59;5016387;28;20238;-87
2022/01/07 10:05:50;;;;;;;2.83;2.60;;;;;;;2.13;94.28;100451.31;5032249;28;20135;-88
2022/01/07 10:08:27;;;;;;;4.93;3.08;;;;;;;2.14;94.28;100445.31;5009334;28;20063;-87
2022/01/07 10:11:13;;;;;;;4.03;2.10;;;;;;;2.16;94.20;100448.78;5013104;28;20585;-87
2022/01/07 10:13:41;;;;;;;6.25;3.05;;;;;;;2.22;94.52;100445.47;5014711;28;20099;-85
2022/01/07 10:16:47;;;;;;;5.82;2.55;;;;;;;2.22;94.06;100446.34;5010129;28;20048;-87
2022/01/07 10:19:41;;;;;;;7.18;3.33;;;;;;;2.22;93.77;100448.94;5018666;28;20103;-87
2022/01/07 10:22:16;;;;;;;4.10;3.37;;;;;;;2.20;94.29;100439.41;5023607;28;20057;-87
2022/01/07 10:24:58;;;;;;;5.40;3.25;;;;;;;2.23;93.71;100429.13;5028196;28;20036;-84
2022/01/07 10:27:39;;;;;;;3.22;2.90;;;;;;;2.24;94.12;100429.19;5026339;28;20159;-87
2022/01/07 10:30:25;;;;;;;4.55;3.03;;;;;;;2.25;94.26;100425.72;5030194;28;20048;-87
2022/01/07 10:32:53;;;;;;;4.13;2.75;;;;;;;2.28;94.19;100431.00;5011296;28;20136;-85
2022/01/07 10:35:23;;;;;;;3.78;3.03;;;;;;;2.30;94.21;100429.28;5022585;28;20057;-85
2022/01/07 10:38:02;;;;;;;2.40;2.20;;;;;;;2.33;94.05;100423.31;5012270;28;20071;-86
2022/01/07 10:40:34;;;;;;;7.35;3.47;;;;;;;2.35;94.16;100431.09;5006994;28;20053;-86
2022/01/07 10:43:20;;;;;;;6.68;4.47;;;;;;;2.38;94.16;100437.19;5026418;28;20171;-86
2022/01/07 10:46:24;;;;;;;6.75;3.17;;;;;;;2.43;94.18;100433.00;5008813;28;20056;-88
2022/01/07 10:49:02;;;;;;;3.33;2.83;;;;;;;2.47;94.05;100421.88;5012588;28;20459;-86
2022/01/07 10:51:43;;;;;;;3.53;3.22;;;;;;;2.51;94.05;100421.97;5025610;28;20041;-86
2022/01/07 10:54:10;;;;;;;6.60;4.82;;;;;;;2.54;93.88;100428.03;5006368;28;20087;-85
2022/01/07 10:56:48;;;;;;;4.32;3.03;;;;;;;2.55;93.62;100423.75;5025076;28;20053;-85
2022/01/07 10:59:25;;;;;;;4.35;3.17;;;;;;;2.56;94.07;100422.94;5006486;28;20041;-85
2022/01/07 11:01:57;;;;;;;4.97;3.28;;;;;;;2.58;93.89;100427.28;5026609;28;20184;-85
2022/01/07 11:04:30;;;;;;;3.20;2.55;;;;;;;2.54;93.81;100427.19;5009359;28;20045;-88
2022/01/07 11:06:59;;;;;;;6.32;3.42;;;;;;;2.47;93.85;100416.72;5007480;28;20462;-85
2022/01/07 11:09:26;;;;;;;3.03;2.63;;;;;;;2.44;94.71;100418.41;5012912;28;21027;-88
2022/01/07 11:11:57;;;;;;;8.10;4.97;;;;;;;2.44;94.65;100419.25;5007734;28;20044;-85
2022/01/07 11:14:30;;;;;;;6.35;2.88;;;;;;;2.44;94.57;100419.25;5007130;28;20044;-85
2022/01/07 11:16:59;;;;;;;6.68;3.05;;;;;;;2.42;94.79;100414.91;5025548;28;20495;-87
2022/01/07 11:19:44;;;;;;;3.60;2.72;;;;;;;2.41;95.22;100410.56;5001986;28;20049;-87
2022/01/07 11:22:13;;;;;;;5.63;2.53;;;;;;;2.38;94.76;100401.03;5026762;28;20124;-84
2022/01/07 11:24:54;;;;;;;4.90;3.15;;;;;;;2.41;95.04;100400.22;5004978;28;20130;-88
2022/01/07 11:27:27;;;;;;;4.93;2.92;;;;;;;2.46;95.39;100394.34;5011726;28;20459;-85
2022/01/07 11:30:11;;;;;;;4.93;3.05;;;;;;;2.48;94.83;100394.34;5005501;28;20353;-88
2022/01/07 11:32:49;;;;;;;6.28;3.47;;;;;;;2.51;95.13;100394.41;5008750;28;20258;-85
2022/01/07 11:35:35;;;;;;;4.75;3.03;;;;;;;2.54;95.10;100394.44;5026499;28;20083;-85
2022/01/07 11:38:02;;;;;;;5.32;3.40;;;;;;;2.54;95.03;100404.78;5024701;28;20041;-85
2022/01/07 11:40:31;;;;;;;6.57;3.65;;;;;;;2.56;94.95;100397.94;5024147;28;20051;-85
2022/01/07 11:43:01;;;;;;;6.53;4.25;;;;;;;2.58;95.36;100398.88;5022760;28;20053;-87